Westford, VT (05494)

9:22 PM EDT en Marzo 25, 2017 (GMT -0400)
Coyote Ridge | | Change Station

Alt 472 ft 44.63 °N, 73.01 °W | Updated 16 seconds ago

Despejado
Despejado
23.7 ° F
Sensación térmica 24 ° F
N
0.0
Viento Variable Viento desde Este
Gusts 0.0 mph

Hoy
Alta -- | Baja -- ° F
--% Posibilidad de precipitaciones
Ayer
Alta -- | Baja -- ° F
Precip. -- pul
Presión 30.48 pul
Visibilidad 10.0 Millas
Nubes Despejado
Vientos helados 24 ° F
Punto de rocío 17 ° F
Humedad 75%
Precipitaciones 0.33 pul
Espesor de la nieve No disponible.
6:45 AM 7:11 PM
Creciente menguante, 5% visible
METAR KBTV 260054Z 36004KT 10SM CLR M02/M09 A3046 RMK AO2 SLP320 T10221094
Presión 30.48 pul
Visibilidad 10.0 Millas
Nubes Despejado
Vientos helados 24 ° F
Punto de rocío 17 ° F
Humedad 75%
Precipitaciones 0.33 pul
Espesor de la nieve No disponible.
6:45 AM 7:11 PM
Creciente menguante, 5% visible
METAR KBTV 260054Z 36004KT 10SM CLR M02/M09 A3046 RMK AO2 SLP320 T10221094

Get Severe Weather Alerts

Thanks for signing up!

Be on the lookout for a verification email in your inbox.

You'll start receiving the daily forecast at 8 AM.

×

10-Day Weather Forecast

Almanac

Astronomía

Mar. 25, 2017 Salida Puesta
Hora real
Crepúsculo civil
Crepúsculo náutico
Crepúsculo astronómico
Luna
Horas de luz
Horas de luz
Tomorrow will be .
, % of the Moon is Illuminated

Extremos de hoy

Máximos del estado Bajos del estado

Community

WunderPhotos

Upload Photos

1,962,540 ¡fotos cargadas!

WunderBlog® & News

Nearby

Calidad del aire

  Calidad del aire Índice AQ Contaminante
Not available.

Grosos de nieve

Estación Profundido Altura

Actividad de terremotos

Ciudad Distance Mag. Tiempo y dato
Magnitud mínima muestra es 2,5.

Actividad de terremotos

Ciudad Distance Mag. Tiempo y dato
Magnitud mínima muestra es 2,5.

Temperaturas de aguas costeras

Lugar Temperatura

Stations

Estaciones meteorológicas cercanas

Ubicación de la estación Temp. Vientos helados Punto de rocío Humedad Viento Precip. Alt Actualizado Tipo
                   

Watches & Warnings

There are currently no watches in effect.